createdAt,value
2022-12-01T02:32:05.828Z,16.8
2022-12-01T03:12:11.135Z,16.8
2022-12-01T03:52:17.880Z,16.8
2022-12-01T04:02:19.357Z,16.7
2022-12-01T04:12:20.557Z,16.7
2022-12-01T04:32:23.448Z,16.7
2022-12-01T04:52:27.444Z,16.7
2022-12-01T05:02:27.086Z,16.7
2022-12-01T05:12:28.154Z,16.7
2022-12-01T05:22:57.115Z,16.7
2022-12-01T05:32:31.788Z,16.7
2022-12-01T05:42:33.627Z,16.7
2022-12-01T05:52:35.587Z,16.7
2022-12-01T06:02:37.478Z,16.7
2022-12-01T06:12:39.371Z,16.7
2022-12-01T06:22:40.547Z,16.7
2022-12-01T06:32:42.009Z,16.7
2022-12-01T06:42:43.924Z,16.7
2022-12-01T06:52:45.616Z,16.7
2022-12-01T07:02:47.185Z,16.5
2022-12-01T07:12:48.208Z,16.1
2022-12-01T07:22:49.878Z,16.1
2022-12-01T07:32:51.264Z,16.2
2022-12-01T07:42:53.119Z,16.2
2022-12-01T07:52:55.031Z,16.1
2022-12-01T08:02:56.290Z,16.5
2022-12-01T08:12:57.854Z,16.4
2022-12-01T08:22:59.416Z,15.8
2022-12-01T08:33:01.256Z,15.4
2022-12-01T08:43:03.227Z,15
2022-12-01T08:53:04.795Z,14.9
2022-12-01T09:03:06.737Z,15
2022-12-01T09:13:08.009Z,14.9
2022-12-01T09:23:09.587Z,14.8
2022-12-01T09:23:33.494Z,14.8
2022-12-01T09:33:17.726Z,14.6
2022-12-01T09:43:19.529Z,14.5
2022-12-01T09:53:21.292Z,14.5
2022-12-01T10:23:25.959Z,15.5
2022-12-01T10:33:27.656Z,16.2
2022-12-01T10:43:29.170Z,16.4
2022-12-01T10:53:30.644Z,16.6
2022-12-01T11:03:32.839Z,16.6
2022-12-01T11:13:34.191Z,16.6
2022-12-01T11:23:35.822Z,16.8
2022-12-01T11:33:36.967Z,17
2022-12-01T11:43:40.008Z,17
2022-12-01T11:53:40.925Z,17.2
2022-12-01T12:03:42.148Z,17.5
2022-12-01T12:13:43.955Z,17.6
2022-12-01T12:23:45.540Z,17.7
2022-12-01T12:33:47.278Z,17.8
2022-12-01T12:43:48.839Z,17.8
2022-12-01T12:53:50.427Z,17.8
2022-12-01T13:03:52.329Z,17.7
2022-12-01T13:13:53.484Z,17.7
2022-12-01T13:23:54.774Z,17.7
2022-12-01T13:33:56.702Z,17.7
2022-12-01T13:43:58.221Z,17.6
2022-12-01T13:53:59.941Z,17.6
2022-12-01T14:04:01.717Z,17.6
2022-12-01T14:14:03.492Z,17.6
2022-12-01T14:24:05.158Z,17.6
2022-12-01T14:34:07.008Z,17.5
2022-12-01T14:44:08.679Z,17.5
2022-12-01T14:54:10.694Z,17.5
2022-12-01T15:04:11.890Z,17.4
2022-12-01T15:14:13.403Z,17.4
2022-12-01T15:24:14.711Z,17.4
2022-12-01T15:34:16.640Z,17.3
2022-12-01T15:44:18.467Z,17.3
2022-12-01T15:54:20.197Z,17.2
2022-12-01T16:04:22.092Z,17.2
2022-12-01T16:14:23.328Z,17.2
2022-12-01T16:34:45.080Z,17.1
2022-12-01T16:44:29.048Z,17.1
2022-12-01T17:14:32.302Z,17.1
2022-12-01T17:24:34.012Z,17.2
2022-12-01T17:44:37.458Z,17.2
2022-12-01T17:54:38.648Z,17.2
2022-12-01T18:04:40.532Z,17.2
2022-12-01T18:14:41.828Z,17.2
2022-12-01T18:24:43.435Z,17.2
2022-12-01T18:34:44.882Z,17.2
2022-12-01T18:44:46.528Z,17.2
2022-12-01T18:54:48.498Z,17.2
2022-12-01T19:04:50.602Z,17.2
2022-12-01T19:14:52.417Z,17.2
2022-12-01T19:24:53.955Z,17.2
2022-12-01T19:34:54.995Z,17.2
2022-12-01T19:54:58.480Z,17.2
2022-12-01T20:04:59.817Z,17.2
2022-12-01T20:15:01.498Z,17.2
2022-12-01T20:25:03.273Z,17.2
2022-12-01T20:35:05.095Z,17.2
2022-12-01T20:45:06.402Z,17.2
2022-12-01T20:55:07.923Z,17.2
2022-12-01T21:05:09.013Z,17.2
2022-12-01T21:15:10.947Z,17.2
2022-12-01T21:25:12.527Z,17.2
2022-12-01T21:35:13.722Z,17.2
2022-12-01T21:45:14.987Z,17.2
2022-12-01T21:55:16.802Z,17.2
2022-12-01T22:05:18.732Z,17.2
2022-12-01T22:15:20.548Z,17.2
2022-12-01T22:25:22.401Z,17.2
2022-12-01T22:45:26.074Z,17.2
2022-12-01T22:55:27.078Z,17.2
2022-12-01T23:05:28.909Z,17.2
2022-12-01T23:15:30.437Z,17.2
2022-12-01T23:25:31.533Z,17.2
2022-12-01T23:35:32.895Z,17.2
2022-12-01T23:45:34.585Z,17.2
2022-12-01T23:55:36.188Z,17.2
